sensor_id;sensor_type;location;lat;lon;timestamp;pressure;altitude;pressure_sealevel;temperature;humidity
68193;BME280;55012;47.562;18.414;2024-03-02T00:00:07;99525.31;;;8.80;100.00
68193;BME280;55012;47.562;18.414;2024-03-02T00:02:45;99531.97;;;8.82;100.00
68193;BME280;55012;47.562;18.414;2024-03-02T00:05:11;99538.63;;;8.85;100.00
68193;BME280;55012;47.562;18.414;2024-03-02T00:07:37;99532.13;;;8.86;100.00
68193;BME280;55012;47.562;18.414;2024-03-02T00:10:08;99523.69;;;8.87;100.00
68193;BME280;55012;47.562;18.414;2024-03-02T00:12:36;99518.44;;;8.91;100.00
68193;BME280;55012;47.562;18.414;2024-03-02T00:15:05;99509.69;;;8.94;100.00
68193;BME280;55012;47.562;18.414;2024-03-02T00:17:32;99513.97;;;8.95;100.00
68193;BME280;55012;47.562;18.414;2024-03-02T00:19:57;99514.16;;;8.90;100.00
68193;BME280;55012;47.562;18.414;2024-03-02T00:22:23;99508.47;;;8.83;100.00
68193;BME280;55012;47.562;18.414;2024-03-02T00:24:48;99499.81;;;8.77;100.00
68193;BME280;55012;47.562;18.414;2024-03-02T00:27:14;99496.50;;;8.71;100.00
68193;BME280;55012;47.562;18.414;2024-03-02T00:29:41;99498.56;;;8.66;100.00
68193;BME280;55012;47.562;18.414;2024-03-02T00:32:16;99479.91;;;8.61;100.00
68193;BME280;55012;47.562;18.414;2024-03-02T00:34:41;99485.47;;;8.56;100.00
68193;BME280;55012;47.562;18.414;2024-03-02T00:37:07;99474.84;;;8.51;100.00
68193;BME280;55012;47.562;18.414;2024-03-02T00:39:33;99481.69;;;8.48;100.00
68193;BME280;55012;47.562;18.414;2024-03-02T00:41:58;99482.03;;;8.47;100.00
68193;BME280;55012;47.562;18.414;2024-03-02T00:44:25;99483.16;;;8.46;100.00
68193;BME280;55012;47.562;18.414;2024-03-02T00:46:52;99475.88;;;8.37;100.00
68193;BME280;55012;47.562;18.414;2024-03-02T00:49:23;99493.31;;;8.40;100.00
68193;BME280;55012;47.562;18.414;2024-03-02T00:51:50;99490.16;;;8.38;100.00
68193;BME280;55012;47.562;18.414;2024-03-02T00:54:19;99490.47;;;8.36;100.00
68193;BME280;55012;47.562;18.414;2024-03-02T00:56:45;99490.78;;;8.35;100.00
68193;BME280;55012;47.562;18.414;2024-03-02T00:59:12;99495.88;;;8.36;100.00
68193;BME280;55012;47.562;18.414;2024-03-02T01:01:37;99494.25;;;8.35;100.00
68193;BME280;55012;47.562;18.414;2024-03-02T01:04:03;99489.16;;;8.34;100.00
68193;BME280;55012;47.562;18.414;2024-03-02T01:06:29;99498.03;;;8.34;100.00
68193;BME280;55012;47.562;18.414;2024-03-02T01:08:55;99498.88;;;8.35;100.00
68193;BME280;55012;47.562;18.414;2024-03-02T01:11:20;99496.78;;;8.32;100.00
68193;BME280;55012;47.562;18.414;2024-03-02T01:13:49;99490.63;;;8.31;100.00
68193;BME280;55012;47.562;18.414;2024-03-02T01:16:14;99499.03;;;8.30;100.00
68193;BME280;55012;47.562;18.414;2024-03-02T01:18:41;99487.94;;;8.23;100.00
68193;BME280;55012;47.562;18.414;2024-03-02T01:21:07;99500.63;;;8.22;100.00
68193;BME280;55012;47.562;18.414;2024-03-02T01:23:32;99492.41;;;8.18;100.00
68193;BME280;55012;47.562;18.414;2024-03-02T01:25:58;99496.84;;;8.14;100.00
68193;BME280;55012;47.562;18.414;2024-03-02T01:28:23;99484.84;;;8.12;100.00
68193;BME280;55012;47.562;18.414;2024-03-02T01:30:49;99494.97;;;8.06;100.00
68193;BME280;55012;47.562;18.414;2024-03-02T01:33:15;99488.34;;;8.04;100.00
68193;BME280;55012;47.562;18.414;2024-03-02T01:35:40;99486.44;;;8.04;100.00
68193;BME280;55012;47.562;18.414;2024-03-02T01:38:06;99480.41;;;7.99;100.00
68193;BME280;55012;47.562;18.414;2024-03-02T01:40:34;99467.75;;;7.99;100.00
68193;BME280;55012;47.562;18.414;2024-03-02T01:43:00;99483.91;;;7.99;100.00
68193;BME280;55012;47.562;18.414;2024-03-02T01:45:25;99479.16;;;7.96;100.00
68193;BME280;55012;47.562;18.414;2024-03-02T01:47:51;99490.56;;;7.93;100.00
68193;BME280;55012;47.562;18.414;2024-03-02T01:50:25;99491.84;;;7.96;100.00
68193;BME280;55012;47.562;18.414;2024-03-02T01:52:51;99492.97;;;7.95;100.00
68193;BME280;55012;47.562;18.414;2024-03-02T01:55:16;99494.53;;;7.96;100.00
68193;BME280;55012;47.562;18.414;2024-03-02T01:57:42;99489.63;;;7.98;100.00
68193;BME280;55012;47.562;18.414;2024-03-02T02:00:08;99492.31;;;7.98;100.00
68193;BME280;55012;47.562;18.414;2024-03-02T02:02:34;99497.03;;;8.01;100.00
68193;BME280;55012;47.562;18.414;2024-03-02T02:05:00;99495.47;;;8.00;100.00
68193;BME280;55012;47.562;18.414;2024-03-02T02:07:25;99493.09;;;7.98;100.00
68193;BME280;55012;47.562;18.414;2024-03-02T02:09:51;99490.88;;;8.00;100.00
68193;BME280;55012;47.562;18.414;2024-03-02T02:12:16;99496.25;;;8.00;100.00
68193;BME280;55012;47.562;18.414;2024-03-02T02:14:47;99504.97;;;8.06;100.00
68193;BME280;55012;47.562;18.414;2024-03-02T02:17:13;99505.75;;;8.06;100.00
68193;BME280;55012;47.562;18.414;2024-03-02T02:19:40;99506.38;;;8.12;100.00
68193;BME280;55012;47.562;18.414;2024-03-02T02:22:06;99503.03;;;8.15;100.00
68193;BME280;55012;47.562;18.414;2024-03-02T02:24:31;99511.59;;;8.17;100.00
68193;BME280;55012;47.562;18.414;2024-03-02T02:26:56;99493.19;;;8.19;100.00
68193;BME280;55012;47.562;18.414;2024-03-02T02:29:22;99493.34;;;8.23;100.00
68193;BME280;55012;47.562;18.414;2024-03-02T02:31:47;99481.00;;;8.22;100.00
68193;BME280;55012;47.562;18.414;2024-03-02T02:34:14;99488.75;;;8.23;100.00
68193;BME280;55012;47.562;18.414;2024-03-02T02:36:39;99481.91;;;8.26;100.00
68193;BME280;55012;47.562;18.414;2024-03-02T02:39:08;99478.59;;;8.29;100.00
68193;BME280;55012;47.562;18.414;2024-03-02T02:41:36;99472.22;;;8.33;100.00
68193;BME280;55012;47.562;18.414;2024-03-02T02:44:01;99470.81;;;8.36;100.00
68193;BME280;55012;47.562;18.414;2024-03-02T02:46:26;99463.53;;;8.36;100.00
68193;BME280;55012;47.562;18.414;2024-03-02T02:48:52;99461.91;;;8.35;100.00
68193;BME280;55012;47.562;18.414;2024-03-02T02:51:18;99452.41;;;8.38;100.00
68193;BME280;55012;47.562;18.414;2024-03-02T02:53:43;99456.53;;;8.35;100.00
68193;BME280;55012;47.562;18.414;2024-03-02T02:56:09;99450.34;;;8.35;100.00
68193;BME280;55012;47.562;18.414;2024-03-02T02:58:34;99443.34;;;8.34;100.00
68193;BME280;55012;47.562;18.414;2024-03-02T03:01:00;99443.34;;;8.34;100.00
68193;BME280;55012;47.562;18.414;2024-03-02T03:03:26;99453.84;;;8.35;100.00
68193;BME280;55012;47.562;18.414;2024-03-02T03:05:51;99445.44;;;8.37;100.00
68193;BME280;55012;47.562;18.414;2024-03-02T03:08:16;99447.03;;;8.38;100.00
68193;BME280;55012;47.562;18.414;2024-03-02T03:10:42;99442.41;;;8.38;100.00
68193;BME280;55012;47.562;18.414;2024-03-02T03:13:07;99436.69;;;8.40;100.00
68193;BME280;55012;47.562;18.414;2024-03-02T03:15:37;99427.50;;;8.32;100.00
68193;BME280;55012;47.562;18.414;2024-03-02T03:18:03;99433.34;;;8.34;100.00
68193;BME280;55012;47.562;18.414;2024-03-02T03:20:29;99428.28;;;8.33;100.00
68193;BME280;55012;47.562;18.414;2024-03-02T03:22:55;99423.22;;;8.31;100.00
68193;BME280;55012;47.562;18.414;2024-03-02T03:25:20;99418.16;;;8.30;100.00
68193;BME280;55012;47.562;18.414;2024-03-02T03:27:45;99412.44;;;8.31;100.00
68193;BME280;55012;47.562;18.414;2024-03-02T03:30:11;99400.09;;;8.30;100.00
68193;BME280;55012;47.562;18.414;2024-03-02T03:32:36;99402.00;;;8.30;100.00
68193;BME280;55012;47.562;18.414;2024-03-02T03:35:03;99402.78;;;8.30;100.00
68193;BME280;55012;47.562;18.414;2024-03-02T03:37:29;99386.66;;;8.22;100.00
68193;BME280;55012;47.562;18.414;2024-03-02T03:39:58;99382.41;;;8.21;100.00
68193;BME280;55012;47.562;18.414;2024-03-02T03:42:24;99392.63;;;8.27;100.00
68193;BME280;55012;47.562;18.414;2024-03-02T03:44:49;99382.69;;;8.28;100.00
68193;BME280;55012;47.562;18.414;2024-03-02T03:47:15;99392.63;;;8.27;100.00
68193;BME280;55012;47.562;18.414;2024-03-02T03:49:40;99388.38;;;8.26;100.00
68193;BME280;55012;47.562;18.414;2024-03-02T03:52:06;99374.78;;;8.23;100.00
68193;BME280;55012;47.562;18.414;2024-03-02T03:54:31;99386.78;;;8.25;100.00
68193;BME280;55012;47.562;18.414;2024-03-02T03:56:57;99381.28;;;8.22;100.00
68193;BME280;55012;47.562;18.414;2024-03-02T03:59:22;99376.69;;;8.22;100.00
68193;BME280;55012;47.562;18.414;2024-03-02T04:01:47;99376.81;;;8.26;100.00
68193;BME280;55012;47.562;18.414;2024-03-02T04:04:13;99371.75;;;8.24;100.00
68193;BME280;55012;47.562;18.414;2024-03-02T04:06:38;99385.84;;;8.30;100.00
68193;BME280;55012;47.562;18.414;2024-03-02T04:09:04;99377.09;;;8.33;100.00
68193;BME280;55012;47.562;18.414;2024-03-02T04:11:29;99387.25;;;8.36;100.00
68193;BME280;55012;47.562;18.414;2024-03-02T04:13:55;99385.66;;;8.35;100.00
68193;BME280;55012;47.562;18.414;2024-03-02T04:16:21;99383.25;;;8.33;100.00
68193;BME280;55012;47.562;18.414;2024-03-02T04:18:46;99387.06;;;8.32;100.00
68193;BME280;55012;47.562;18.414;2024-03-02T04:21:11;99388.66;;;8.33;100.00
68193;BME280;55012;47.562;18.414;2024-03-02T04:23:37;99389.31;;;8.30;100.00
68193;BME280;55012;47.562;18.414;2024-03-02T04:26:02;99384.25;;;8.29;100.00
68193;BME280;55012;47.562;18.414;2024-03-02T04:28:28;99388.69;;;8.25;100.00
68193;BME280;55012;47.562;18.414;2024-03-02T04:30:53;99386.34;;;8.23;100.00
68193;BME280;55012;47.562;18.414;2024-03-02T04:33:19;99386.34;;;8.23;100.00
68193;BME280;55012;47.562;18.414;2024-03-02T04:35:44;99389.69;;;8.20;100.00
68193;BME280;55012;47.562;18.414;2024-03-02T04:38:09;99389.19;;;8.18;100.00
68193;BME280;55012;47.562;18.414;2024-03-02T04:40:35;99388.41;;;8.17;100.00
68193;BME280;55012;47.562;18.414;2024-03-02T04:43:00;99393.81;;;8.17;100.00
68193;BME280;55012;47.562;18.414;2024-03-02T04:45:25;99397.63;;;8.16;100.00
68193;BME280;55012;47.562;18.414;2024-03-02T04:47:51;99400.66;;;8.15;100.00
68193;BME280;55012;47.562;18.414;2024-03-02T04:50:16;99404.91;;;8.16;100.00
68193;BME280;55012;47.562;18.414;2024-03-02T04:52:42;99403.78;;;8.17;100.00
68193;BME280;55012;47.562;18.414;2024-03-02T04:55:07;99407.75;;;8.20;100.00
68193;BME280;55012;47.562;18.414;2024-03-02T04:57:44;99410.75;;;8.18;100.00
68193;BME280;55012;47.562;18.414;2024-03-02T05:00:11;99412.03;;;8.21;100.00
68193;BME280;55012;47.562;18.414;2024-03-02T05:02:37;99410.47;;;8.20;100.00
68193;BME280;55012;47.562;18.414;2024-03-02T05:05:03;99419.34;;;8.20;100.00
68193;BME280;55012;47.562;18.414;2024-03-02T05:07:28;99408.56;;;8.20;100.00
68193;BME280;55012;47.562;18.414;2024-03-02T05:09:54;99417.44;;;8.21;100.00
68193;BME280;55012;47.562;18.414;2024-03-02T05:12:19;99410.75;;;8.18;100.00
68193;BME280;55012;47.562;18.414;2024-03-02T05:14:47;99417.94;;;8.14;100.00
68193;BME280;55012;47.562;18.414;2024-03-02T05:17:12;99423.31;;;8.14;100.00
68193;BME280;55012;47.562;18.414;2024-03-02T05:19:38;99421.28;;;8.11;100.00
68193;BME280;55012;47.562;18.414;2024-03-02T05:22:04;99428.88;;;8.09;100.00
68193;BME280;55012;47.562;18.414;2024-03-02T05:24:29;99426.19;;;8.09;100.00
68193;BME280;55012;47.562;18.414;2024-03-02T05:26:54;99435.03;;;8.09;100.00
68193;BME280;55012;47.562;18.414;2024-03-02T05:29:20;99430.31;;;8.06;100.00
68193;BME280;55012;47.562;18.414;2024-03-02T05:31:46;99440.31;;;8.06;100.00
68193;BME280;55012;47.562;18.414;2024-03-02T05:34:11;99437.28;;;8.07;100.00
68193;BME280;55012;47.562;18.414;2024-03-02T05:36:37;99442.22;;;8.05;100.00
68193;BME280;55012;47.562;18.414;2024-03-02T05:39:04;99448.38;;;8.06;100.00
68193;BME280;55012;47.562;18.414;2024-03-02T05:41:31;99458.84;;;8.07;100.00
68193;BME280;55012;47.562;18.414;2024-03-02T05:43:56;99462.00;;;8.09;100.00
68193;BME280;55012;47.562;18.414;2024-03-02T05:46:22;99470.25;;;8.13;100.00
68193;BME280;55012;47.562;18.414;2024-03-02T05:48:47;99478.31;;;8.13;100.00
68193;BME280;55012;47.562;18.414;2024-03-02T05:51:13;99475.63;;;8.13;100.00
68193;BME280;55012;47.562;18.414;2024-03-02T05:53:38;99480.03;;;8.17;100.00
68193;BME280;55012;47.562;18.414;2024-03-02T05:56:04;99478.13;;;8.18;100.00
68193;BME280;55012;47.562;18.414;2024-03-02T05:58:30;99480.81;;;8.18;100.00
68193;BME280;55012;47.562;18.414;2024-03-02T06:01:14;99486.72;;;8.20;100.00
68193;BME280;55012;47.562;18.414;2024-03-02T06:03:40;99492.09;;;8.20;100.00
68193;BME280;55012;47.562;18.414;2024-03-02T06:06:05;99486.38;;;8.22;100.00
68193;BME280;55012;47.562;18.414;2024-03-02T06:08:31;99506.66;;;8.19;100.00
68193;BME280;55012;47.562;18.414;2024-03-02T06:10:56;99504.63;;;8.16;100.00
68193;BME280;55012;47.562;18.414;2024-03-02T06:13:22;99512.69;;;8.16;100.00
68193;BME280;55012;47.562;18.414;2024-03-02T06:15:48;99515.41;;;8.16;100.00
68193;BME280;55012;47.562;18.414;2024-03-02T06:18:13;99521.91;;;8.15;100.00
68193;BME280;55012;47.562;18.414;2024-03-02T06:20:39;99524.25;;;8.16;100.00
68193;BME280;55012;47.562;18.414;2024-03-02T06:23:04;99525.53;;;8.19;100.00
68193;BME280;55012;47.562;18.414;2024-03-02T06:25:29;99520.66;;;8.12;100.00
68193;BME280;55012;47.562;18.414;2024-03-02T06:27:55;99532.53;;;8.11;100.00
68193;BME280;55012;47.562;18.414;2024-03-02T06:30:20;99533.97;;;8.09;100.00
68193;BME280;55012;47.562;18.414;2024-03-02T06:32:45;99540.47;;;8.08;100.00
68193;BME280;55012;47.562;18.414;2024-03-02T06:35:11;99546.81;;;8.12;100.00
68193;BME280;55012;47.562;18.414;2024-03-02T06:37:38;99556.00;;;8.11;100.00
68193;BME280;55012;47.562;18.414;2024-03-02T06:40:05;99556.50;;;8.04;100.00
68193;BME280;55012;47.562;18.414;2024-03-02T06:42:33;99559.00;;;8.01;100.00
68193;BME280;55012;47.562;18.414;2024-03-02T06:44:59;99559.66;;;7.98;100.00
68193;BME280;55012;47.562;18.414;2024-03-02T06:47:25;99592.25;;;9.16;100.00
68193;BME280;55012;47.562;18.414;2024-03-02T06:49:50;99603.81;;;10.08;100.00
68193;BME280;55012;47.562;18.414;2024-03-02T06:52:16;99591.50;;;9.99;100.00
68193;BME280;55012;47.562;18.414;2024-03-02T06:54:42;99563.88;;;9.60;100.00
68193;BME280;55012;47.562;18.414;2024-03-02T06:57:07;99539.69;;;9.22;100.00
68193;BME280;55012;47.562;18.414;2024-03-02T06:59:32;99532.72;;;8.91;100.00
68193;BME280;55012;47.562;18.414;2024-03-02T07:01:58;99530.59;;;8.67;100.00
68193;BME280;55012;47.562;18.414;2024-03-02T07:04:24;99546.53;;;8.52;100.00
68193;BME280;55012;47.562;18.414;2024-03-02T07:06:49;99595.72;;;10.41;100.00
68193;BME280;55012;47.562;18.414;2024-03-02T07:09:16;99624.75;;;12.31;100.00
68193;BME280;55012;47.562;18.414;2024-03-02T07:11:41;99537.88;;;11.72;100.00
68193;BME280;55012;47.562;18.414;2024-03-02T07:14:07;99465.53;;;10.92;100.00
68193;BME280;55012;47.562;18.414;2024-03-02T07:16:32;99426.31;;;10.12;100.00
68193;BME280;55012;47.562;18.414;2024-03-02T07:18:59;99421.69;;;9.55;100.00
68193;BME280;55012;47.562;18.414;2024-03-02T07:21:27;99449.09;;;9.12;100.00
68193;BME280;55012;47.562;18.414;2024-03-02T07:23:52;99471.00;;;8.90;100.00
68193;BME280;55012;47.562;18.414;2024-03-02T07:26:18;99497.09;;;8.77;100.00
68193;BME280;55012;47.562;18.414;2024-03-02T07:28:45;99516.50;;;8.70;100.00
68193;BME280;55012;47.562;18.414;2024-03-02T07:31:11;99525.25;;;8.59;100.00
68193;BME280;55012;47.562;18.414;2024-03-02T07:33:36;99536.69;;;8.56;100.00
68193;BME280;55012;47.562;18.414;2024-03-02T07:36:02;99557.31;;;8.52;100.00
68193;BME280;55012;47.562;18.414;2024-03-02T07:38:28;99576.06;;;8.48;100.00
68193;BME280;55012;47.562;18.414;2024-03-02T07:40:54;99578.13;;;8.42;100.00
68193;BME280;55012;47.562;18.414;2024-03-02T07:43:20;99595.09;;;8.43;100.00
68193;BME280;55012;47.562;18.414;2024-03-02T07:45:46;99606.06;;;8.38;100.00
68193;BME280;55012;47.562;18.414;2024-03-02T07:48:12;99607.78;;;8.34;100.00
68193;BME280;55012;47.562;18.414;2024-03-02T07:50:37;99617.31;;;8.31;100.00
68193;BME280;55012;47.562;18.414;2024-03-02T07:53:04;99636.03;;;8.28;100.00
68193;BME280;55012;47.562;18.414;2024-03-02T07:55:30;99640.13;;;8.25;100.00
68193;BME280;55012;47.562;18.414;2024-03-02T07:58:01;99647.44;;;8.25;100.00
68193;BME280;55012;47.562;18.414;2024-03-02T08:00:26;99652.50;;;8.26;100.00
68193;BME280;55012;47.562;18.414;2024-03-02T08:02:53;99660.75;;;8.30;100.00
68193;BME280;55012;47.562;18.414;2024-03-02T08:05:19;99668.69;;;8.35;100.00
68193;BME280;55012;47.562;18.414;2024-03-02T08:07:46;99689.94;;;8.45;100.00
68193;BME280;55012;47.562;18.414;2024-03-02T08:10:12;99695.00;;;8.47;100.00
68193;BME280;55012;47.562;18.414;2024-03-02T08:12:37;99692.47;;;8.50;100.00
68193;BME280;55012;47.562;18.414;2024-03-02T08:15:03;99707.38;;;8.48;100.00
68193;BME280;55012;47.562;18.414;2024-03-02T08:17:29;99709.75;;;8.49;100.00
68193;BME280;55012;47.562;18.414;2024-03-02T08:19:55;99706.13;;;8.45;100.00
68193;BME280;55012;47.562;18.414;2024-03-02T08:22:20;99712.31;;;8.46;100.00
68193;BME280;55012;47.562;18.414;2024-03-02T08:24:45;99718.16;;;8.48;100.00
68193;BME280;55012;47.562;18.414;2024-03-02T08:27:11;99713.72;;;8.52;100.00
68193;BME280;55012;47.562;18.414;2024-03-02T08:29:37;99719.59;;;8.54;100.00
68193;BME280;55012;47.562;18.414;2024-03-02T08:32:03;99727.81;;;8.57;100.00
68193;BME280;55012;47.562;18.414;2024-03-02T08:34:28;99729.88;;;8.60;100.00
68193;BME280;55012;47.562;18.414;2024-03-02T08:36:53;99732.41;;;8.65;100.00
68193;BME280;55012;47.562;18.414;2024-03-02T08:39:20;99733.06;;;8.71;100.00
68193;BME280;55012;47.562;18.414;2024-03-02T08:41:46;99737.66;;;8.70;100.00
68193;BME280;55012;47.562;18.414;2024-03-02T08:44:13;99737.34;;;8.72;100.00
68193;BME280;55012;47.562;18.414;2024-03-02T08:46:39;99743.97;;;8.75;100.00
68193;BME280;55012;47.562;18.414;2024-03-02T08:49:04;99740.81;;;8.72;100.00
68193;BME280;55012;47.562;18.414;2024-03-02T08:51:30;99735.59;;;8.67;100.00
68193;BME280;55012;47.562;18.414;2024-03-02T08:53:56;99734.16;;;8.70;100.00
68193;BME280;55012;47.562;18.414;2024-03-02T08:56:23;99732.88;;;8.76;100.00
68193;BME280;55012;47.562;18.414;2024-03-02T08:58:49;99743.34;;;8.86;100.00
68193;BME280;55012;47.562;18.414;2024-03-02T09:01:15;99731.75;;;8.94;100.00
68193;BME280;55012;47.562;18.414;2024-03-02T09:03:42;99733.94;;;9.01;100.00
68193;BME280;55012;47.562;18.414;2024-03-02T09:06:10;99734.56;;;8.98;100.00
68193;BME280;55012;47.562;18.414;2024-03-02T09:08:35;99739.66;;;8.99;100.00
68193;BME280;55012;47.562;18.414;2024-03-02T09:11:05;99739.31;;;9.01;100.00
68193;BME280;55012;47.562;18.414;2024-03-02T09:13:31;99736.81;;;8.96;100.00
68193;BME280;55012;47.562;18.414;2024-03-02T09:15:56;99742.53;;;8.94;100.00
68193;BME280;55012;47.562;18.414;2024-03-02T09:18:22;99742.22;;;8.96;100.00
68193;BME280;55012;47.562;18.414;2024-03-02T09:20:47;99737.94;;;8.95;100.00
68193;BME280;55012;47.562;18.414;2024-03-02T09:23:12;99754.72;;;9.00;100.00
68193;BME280;55012;47.562;18.414;2024-03-02T09:25:38;99740.13;;;9.01;100.00
68193;BME280;55012;47.562;18.414;2024-03-02T09:28:03;99755.03;;;9.08;100.00
68193;BME280;55012;47.562;18.414;2024-03-02T09:30:29;99749.63;;;9.08;100.00
68193;BME280;55012;47.562;18.414;2024-03-02T09:32:54;99755.03;;;9.08;100.00
68193;BME280;55012;47.562;18.414;2024-03-02T09:35:19;99755.22;;;9.03;100.00
68193;BME280;55012;47.562;18.414;2024-03-02T09:37:45;99770.63;;;9.02;100.00
68193;BME280;55012;47.562;18.414;2024-03-02T09:40:11;99770.28;;;9.04;100.00
68193;BME280;55012;47.562;18.414;2024-03-02T09:42:37;99769.31;;;9.08;100.00
68193;BME280;55012;47.562;18.414;2024-03-02T09:45:03;99772.50;;;9.10;100.00
68193;BME280;55012;47.562;18.414;2024-03-02T09:47:28;99767.56;;;9.12;100.00
68193;BME280;55012;47.562;18.414;2024-03-02T09:49:54;99769.63;;;9.15;100.00
68193;BME280;55012;47.562;18.414;2024-03-02T09:52:22;99765.00;;;9.16;100.00
68193;BME280;55012;47.562;18.414;2024-03-02T09:54:47;99771.66;;;9.18;100.00
68193;BME280;55012;47.562;18.414;2024-03-02T09:57:13;99762.16;;;9.21;100.00
68193;BME280;55012;47.562;18.414;2024-03-02T09:59:38;99762.94;;;9.21;100.00
68193;BME280;55012;47.562;18.414;2024-03-02T10:02:04;99756.28;;;9.19;100.00
68193;BME280;55012;47.562;18.414;2024-03-02T10:04:32;99759.16;;;9.14;100.00
68193;BME280;55012;47.562;18.414;2024-03-02T10:07:14;99755.31;;;9.15;100.00
68193;BME280;55012;47.562;18.414;2024-03-02T10:09:40;99746.13;;;9.16;100.00
68193;BME280;55012;47.562;18.414;2024-03-02T10:12:08;99750.06;;;9.18;100.00
68193;BME280;55012;47.562;18.414;2024-03-02T10:14:34;99750.06;;;9.18;100.00
68193;BME280;55012;47.562;18.414;2024-03-02T10:19:28;99734.22;;;9.08;100.00
68193;BME280;55012;47.562;18.414;2024-03-02T10:21:58;99748.34;;;9.14;100.00
68193;BME280;55012;47.562;18.414;2024-03-02T10:24:24;99742.47;;;9.20;100.00
68193;BME280;55012;47.562;18.414;2024-03-02T10:26:51;99753.81;;;9.35;100.00
68193;BME280;55012;47.562;18.414;2024-03-02T10:29:16;99757.13;;;9.40;100.00
68193;BME280;55012;47.562;18.414;2024-03-02T10:31:44;99762.53;;;9.40;100.00
68193;BME280;55012;47.562;18.414;2024-03-02T10:34:11;99755.56;;;9.39;100.00
68193;BME280;55012;47.562;18.414;2024-03-02T10:36:37;99762.53;;;9.40;100.00
68193;BME280;55012;47.562;18.414;2024-03-02T10:39:06;99753.97;;;9.38;100.00
68193;BME280;55012;47.562;18.414;2024-03-02T10:41:33;99757.31;;;9.44;100.00
68193;BME280;55012;47.562;18.414;2024-03-02T10:44:09;99753.63;;;9.48;100.00
68193;BME280;55012;47.562;18.414;2024-03-02T10:46:38;99758.22;;;9.48;100.00
68193;BME280;55012;47.562;18.414;2024-03-02T10:49:05;99743.84;;;9.35;100.00
68193;BME280;55012;47.562;18.414;2024-03-02T10:51:32;99739.06;;;9.32;100.00
68193;BME280;55012;47.562;18.414;2024-03-02T10:53:58;99734.63;;;9.36;100.00
68193;BME280;55012;47.562;18.414;2024-03-02T11:01:34;99736.72;;;9.60;100.00
68193;BME280;55012;47.562;18.414;2024-03-02T11:04:02;99739.91;;;9.62;100.00
68193;BME280;55012;47.562;18.414;2024-03-02T11:06:29;99731.34;;;9.60;100.00
68193;BME280;55012;47.562;18.414;2024-03-02T11:09:00;99735.75;;;9.65;100.00
68193;BME280;55012;47.562;18.414;2024-03-02T11:11:32;99739.56;;;9.64;100.00
68193;BME280;55012;47.562;18.414;2024-03-02T11:14:01;99734.03;;;9.60;100.00
68193;BME280;55012;47.562;18.414;2024-03-02T11:16:35;99723.00;;;9.44;100.00
68193;BME280;55012;47.562;18.414;2024-03-02T11:19:12;99718.47;;;9.27;100.00
68193;BME280;55012;47.562;18.414;2024-03-02T11:21:38;99709.72;;;9.22;100.00
68193;BME280;55012;47.562;18.414;2024-03-02T11:26:52;99705.13;;;9.22;100.00
68193;BME280;55012;47.562;18.414;2024-03-02T11:32:06;99718.53;;;9.40;100.00
68193;BME280;55012;47.562;18.414;2024-03-02T11:34:36;99719.91;;;9.54;100.00
68193;BME280;55012;47.562;18.414;2024-03-02T11:37:02;99717.63;;;9.65;100.00
68193;BME280;55012;47.562;18.414;2024-03-02T11:39:28;99725.03;;;9.77;100.00
68193;BME280;55012;47.562;18.414;2024-03-02T11:41:55;99722.59;;;9.84;100.00
68193;BME280;55012;47.562;18.414;2024-03-02T11:44:21;99727.16;;;9.92;100.00
68193;BME280;55012;47.562;18.414;2024-03-02T11:46:58;99726.06;;;9.93;100.00
68193;BME280;55012;47.562;18.414;2024-03-02T11:49:50;99717.00;;;9.89;100.00
68193;BME280;55012;47.562;18.414;2024-03-02T11:52:16;99720.03;;;9.88;100.00
68193;BME280;55012;47.562;18.414;2024-03-02T11:54:44;99719.03;;;9.92;100.00
68193;BME280;55012;47.562;18.414;2024-03-02T11:57:17;99704.00;;;9.82;100.00
68193;BME280;55012;47.562;18.414;2024-03-02T11:59:43;99699.06;;;9.84;100.00
68193;BME280;55012;47.562;18.414;2024-03-02T12:02:21;99684.56;;;9.89;100.00
68193;BME280;55012;47.562;18.414;2024-03-02T12:04:48;99690.44;;;9.91;100.00
68193;BME280;55012;47.562;18.414;2024-03-02T12:07:21;99691.38;;;9.95;100.00
68193;BME280;55012;47.562;18.414;2024-03-02T12:09:47;99682.88;;;10.05;100.00
68193;BME280;55012;47.562;18.414;2024-03-02T12:12:13;99681.88;;;10.10;100.00
68193;BME280;55012;47.562;18.414;2024-03-02T12:14:50;99672.72;;;10.02;100.00
68193;BME280;55012;47.562;18.414;2024-03-02T12:17:15;99668.47;;;9.93;100.00
68193;BME280;55012;47.562;18.414;2024-03-02T12:19:41;99671.59;;;10.03;100.00
68193;BME280;55012;47.562;18.414;2024-03-02T12:22:06;99675.94;;;10.17;100.00
68193;BME280;55012;47.562;18.414;2024-03-02T12:24:32;99682.91;;;10.26;100.00
68193;BME280;55012;47.562;18.414;2024-03-02T12:26:57;99675.88;;;10.25;100.00
68193;BME280;55012;47.562;18.414;2024-03-02T12:29:23;99667.50;;;10.18;100.00
68193;BME280;55012;47.562;18.414;2024-03-02T12:31:50;99665.19;;;10.08;100.00
68193;BME280;55012;47.562;18.414;2024-03-02T12:34:17;99658.19;;;10.07;100.00
68193;BME280;55012;47.562;18.414;2024-03-02T12:36:43;99647.84;;;10.09;100.00
68193;BME280;55012;47.562;18.414;2024-03-02T12:39:13;99652.38;;;10.17;100.00
68193;BME280;55012;47.562;18.414;2024-03-02T12:41:38;99650.75;;;10.25;100.00
68193;BME280;55012;47.562;18.414;2024-03-02T12:44:05;99648.06;;;10.25;100.00
68193;BME280;55012;47.562;18.414;2024-03-02T12:46:31;99641.41;;;10.22;100.00
68193;BME280;55012;47.562;18.414;2024-03-02T12:48:58;99633.59;;;10.21;100.00
68193;BME280;55012;47.562;18.414;2024-03-02T12:51:24;99636.44;;;10.24;100.00
68193;BME280;55012;47.562;18.414;2024-03-02T12:53:56;99640.97;;;10.32;100.00
68193;BME280;55012;47.562;18.414;2024-03-02T12:56:22;99636.88;;;10.47;100.00
68193;BME280;55012;47.562;18.414;2024-03-02T12:58:47;99643.03;;;10.68;100.00